sensor_id;sensor_type;location;lat;lon;timestamp;temperature;humidity
12833;DHT22;6483;51.310;4.462;2023-04-24T00:01:01;9.70;99.90
12833;DHT22;6483;51.310;4.462;2023-04-24T00:03:28;9.70;99.90
12833;DHT22;6483;51.310;4.462;2023-04-24T00:05:54;9.80;99.90
12833;DHT22;6483;51.310;4.462;2023-04-24T00:08:20;9.80;99.90
12833;DHT22;6483;51.310;4.462;2023-04-24T00:10:46;9.80;99.90
12833;DHT22;6483;51.310;4.462;2023-04-24T00:13:12;9.90;99.90
12833;DHT22;6483;51.310;4.462;2023-04-24T00:15:38;9.80;99.90
12833;DHT22;6483;51.310;4.462;2023-04-24T00:18:06;9.80;99.90
12833;DHT22;6483;51.310;4.462;2023-04-24T00:20:32;9.80;99.90
12833;DHT22;6483;51.310;4.462;2023-04-24T00:23:03;9.80;99.90
12833;DHT22;6483;51.310;4.462;2023-04-24T00:25:32;9.80;99.90
12833;DHT22;6483;51.310;4.462;2023-04-24T00:27:58;9.70;99.90
12833;DHT22;6483;51.310;4.462;2023-04-24T00:30:26;9.80;99.90
12833;DHT22;6483;51.310;4.462;2023-04-24T00:32:53;9.80;99.90
12833;DHT22;6483;51.310;4.462;2023-04-24T00:35:20;9.80;99.90
12833;DHT22;6483;51.310;4.462;2023-04-24T00:37:45;9.80;99.90
12833;DHT22;6483;51.310;4.462;2023-04-24T00:40:12;9.80;99.90
12833;DHT22;6483;51.310;4.462;2023-04-24T00:42:38;9.80;99.90
12833;DHT22;6483;51.310;4.462;2023-04-24T00:45:04;9.70;99.90
12833;DHT22;6483;51.310;4.462;2023-04-24T00:47:32;9.70;99.90
12833;DHT22;6483;51.310;4.462;2023-04-24T00:49:58;9.60;99.90
12833;DHT22;6483;51.310;4.462;2023-04-24T00:52:23;9.60;99.90
12833;DHT22;6483;51.310;4.462;2023-04-24T00:54:50;9.60;99.90
12833;DHT22;6483;51.310;4.462;2023-04-24T00:57:19;9.60;99.90
12833;DHT22;6483;51.310;4.462;2023-04-24T00:59:48;9.50;99.90
12833;DHT22;6483;51.310;4.462;2023-04-24T01:02:14;9.50;99.90
12833;DHT22;6483;51.310;4.462;2023-04-24T01:04:45;9.40;99.90
12833;DHT22;6483;51.310;4.462;2023-04-24T01:07:22;9.40;99.90
12833;DHT22;6483;51.310;4.462;2023-04-24T01:09:50;9.30;99.90
12833;DHT22;6483;51.310;4.462;2023-04-24T01:12:17;9.30;99.90
12833;DHT22;6483;51.310;4.462;2023-04-24T01:14:46;9.30;99.90
12833;DHT22;6483;51.310;4.462;2023-04-24T01:17:18;9.30;99.90
12833;DHT22;6483;51.310;4.462;2023-04-24T01:19:44;9.20;99.90
12833;DHT22;6483;51.310;4.462;2023-04-24T01:22:14;9.30;99.90
12833;DHT22;6483;51.310;4.462;2023-04-24T01:24:43;9.30;99.90
12833;DHT22;6483;51.310;4.462;2023-04-24T01:27:10;9.30;99.90
12833;DHT22;6483;51.310;4.462;2023-04-24T01:29:36;9.30;99.90
12833;DHT22;6483;51.310;4.462;2023-04-24T01:32:03;9.30;99.90
12833;DHT22;6483;51.310;4.462;2023-04-24T01:34:30;9.30;99.90
12833;DHT22;6483;51.310;4.462;2023-04-24T01:36:56;9.30;99.90
12833;DHT22;6483;51.310;4.462;2023-04-24T01:39:22;9.20;99.90
12833;DHT22;6483;51.310;4.462;2023-04-24T01:41:51;9.20;99.90
12833;DHT22;6483;51.310;4.462;2023-04-24T01:44:24;9.20;99.90
12833;DHT22;6483;51.310;4.462;2023-04-24T01:46:50;9.30;99.90
12833;DHT22;6483;51.310;4.462;2023-04-24T01:49:15;9.30;99.90
12833;DHT22;6483;51.310;4.462;2023-04-24T01:51:41;9.30;99.90
12833;DHT22;6483;51.310;4.462;2023-04-24T01:54:11;9.30;99.90
12833;DHT22;6483;51.310;4.462;2023-04-24T01:56:41;9.30;99.90
12833;DHT22;6483;51.310;4.462;2023-04-24T01:59:10;9.30;99.90
12833;DHT22;6483;51.310;4.462;2023-04-24T02:01:37;9.30;99.90
12833;DHT22;6483;51.310;4.462;2023-04-24T02:04:04;9.40;99.90
12833;DHT22;6483;51.310;4.462;2023-04-24T02:06:30;9.40;99.90
12833;DHT22;6483;51.310;4.462;2023-04-24T02:09:00;9.40;99.90
12833;DHT22;6483;51.310;4.462;2023-04-24T02:11:29;9.40;99.90
12833;DHT22;6483;51.310;4.462;2023-04-24T02:13:55;9.40;99.90
12833;DHT22;6483;51.310;4.462;2023-04-24T02:16:20;9.40;99.90
12833;DHT22;6483;51.310;4.462;2023-04-24T02:18:46;9.40;99.90
12833;DHT22;6483;51.310;4.462;2023-04-24T02:21:12;9.50;99.90
12833;DHT22;6483;51.310;4.462;2023-04-24T02:23:39;9.40;99.90
12833;DHT22;6483;51.310;4.462;2023-04-24T02:26:04;9.50;99.90
12833;DHT22;6483;51.310;4.462;2023-04-24T02:28:30;9.50;99.90
12833;DHT22;6483;51.310;4.462;2023-04-24T02:31:19;9.50;99.90
12833;DHT22;6483;51.310;4.462;2023-04-24T02:33:45;9.50;99.90
12833;DHT22;6483;51.310;4.462;2023-04-24T02:36:11;9.50;99.90
12833;DHT22;6483;51.310;4.462;2023-04-24T02:38:37;10.50;99.90
12833;DHT22;6483;51.310;4.462;2023-04-24T02:41:02;9.50;99.90
12833;DHT22;6483;51.310;4.462;2023-04-24T02:43:32;9.40;99.90
12833;DHT22;6483;51.310;4.462;2023-04-24T02:45:59;9.30;99.90
12833;DHT22;6483;51.310;4.462;2023-04-24T02:48:28;9.20;99.90
12833;DHT22;6483;51.310;4.462;2023-04-24T02:50:55;9.20;99.90
12833;DHT22;6483;51.310;4.462;2023-04-24T02:53:23;9.20;99.90
12833;DHT22;6483;51.310;4.462;2023-04-24T02:55:50;9.10;99.90
12833;DHT22;6483;51.310;4.462;2023-04-24T02:58:16;9.10;99.90
12833;DHT22;6483;51.310;4.462;2023-04-24T03:00:42;9.10;99.90
12833;DHT22;6483;51.310;4.462;2023-04-24T03:03:08;9.10;99.90
12833;DHT22;6483;51.310;4.462;2023-04-24T03:05:34;9.10;99.90
12833;DHT22;6483;51.310;4.462;2023-04-24T03:08:00;9.00;99.90
12833;DHT22;6483;51.310;4.462;2023-04-24T03:10:26;9.00;99.90
12833;DHT22;6483;51.310;4.462;2023-04-24T03:12:52;9.00;99.90
12833;DHT22;6483;51.310;4.462;2023-04-24T03:15:18;9.00;99.90
12833;DHT22;6483;51.310;4.462;2023-04-24T03:17:47;9.00;99.90
12833;DHT22;6483;51.310;4.462;2023-04-24T03:20:13;8.90;99.90
12833;DHT22;6483;51.310;4.462;2023-04-24T03:22:39;8.90;99.90
12833;DHT22;6483;51.310;4.462;2023-04-24T03:25:05;8.90;99.90
12833;DHT22;6483;51.310;4.462;2023-04-24T03:27:33;8.90;99.90
12833;DHT22;6483;51.310;4.462;2023-04-24T03:29:59;9.00;99.90
12833;DHT22;6483;51.310;4.462;2023-04-24T03:32:26;8.90;99.90
12833;DHT22;6483;51.310;4.462;2023-04-24T03:34:54;9.00;99.90
12833;DHT22;6483;51.310;4.462;2023-04-24T03:37:22;9.00;99.90
12833;DHT22;6483;51.310;4.462;2023-04-24T03:39:48;9.00;99.90
12833;DHT22;6483;51.310;4.462;2023-04-24T03:42:14;8.90;99.90
12833;DHT22;6483;51.310;4.462;2023-04-24T03:44:39;8.90;99.90
12833;DHT22;6483;51.310;4.462;2023-04-24T03:47:06;8.80;99.90
12833;DHT22;6483;51.310;4.462;2023-04-24T03:49:32;8.80;99.90
12833;DHT22;6483;51.310;4.462;2023-04-24T03:51:57;8.80;99.90
12833;DHT22;6483;51.310;4.462;2023-04-24T03:54:24;8.90;99.90
12833;DHT22;6483;51.310;4.462;2023-04-24T03:56:50;8.80;99.90
12833;DHT22;6483;51.310;4.462;2023-04-24T03:59:19;8.80;99.90
12833;DHT22;6483;51.310;4.462;2023-04-24T04:01:45;8.80;99.90
12833;DHT22;6483;51.310;4.462;2023-04-24T04:04:11;8.70;99.90
12833;DHT22;6483;51.310;4.462;2023-04-24T04:06:38;8.70;99.90
12833;DHT22;6483;51.310;4.462;2023-04-24T04:09:03;8.70;99.90
12833;DHT22;6483;51.310;4.462;2023-04-24T04:11:29;8.70;99.90
12833;DHT22;6483;51.310;4.462;2023-04-24T04:13:58;8.70;99.90
12833;DHT22;6483;51.310;4.462;2023-04-24T04:16:24;8.70;99.90
12833;DHT22;6483;51.310;4.462;2023-04-24T04:18:53;8.70;99.90
12833;DHT22;6483;51.310;4.462;2023-04-24T04:21:19;8.60;99.90
12833;DHT22;6483;51.310;4.462;2023-04-24T04:23:47;8.60;99.90
12833;DHT22;6483;51.310;4.462;2023-04-24T04:26:14;8.60;99.90
12833;DHT22;6483;51.310;4.462;2023-04-24T04:28:40;8.60;99.90
12833;DHT22;6483;51.310;4.462;2023-04-24T04:31:06;8.60;99.90
12833;DHT22;6483;51.310;4.462;2023-04-24T04:33:33;8.60;99.90
12833;DHT22;6483;51.310;4.462;2023-04-24T04:36:02;8.60;99.90
12833;DHT22;6483;51.310;4.462;2023-04-24T04:38:29;8.60;99.90
12833;DHT22;6483;51.310;4.462;2023-04-24T04:40:56;8.60;99.90
12833;DHT22;6483;51.310;4.462;2023-04-24T04:43:23;8.50;99.90
12833;DHT22;6483;51.310;4.462;2023-04-24T04:45:49;8.60;99.90
12833;DHT22;6483;51.310;4.462;2023-04-24T04:48:17;8.60;99.90
12833;DHT22;6483;51.310;4.462;2023-04-24T04:50:47;8.60;99.90
12833;DHT22;6483;51.310;4.462;2023-04-24T04:53:13;8.60;99.90
12833;DHT22;6483;51.310;4.462;2023-04-24T04:55:39;8.60;99.90
12833;DHT22;6483;51.310;4.462;2023-04-24T04:58:05;8.50;99.90
12833;DHT22;6483;51.310;4.462;2023-04-24T05:00:32;8.50;99.90
12833;DHT22;6483;51.310;4.462;2023-04-24T05:03:01;8.50;99.90
12833;DHT22;6483;51.310;4.462;2023-04-24T05:05:28;8.50;99.90
12833;DHT22;6483;51.310;4.462;2023-04-24T05:07:55;8.50;99.90
12833;DHT22;6483;51.310;4.462;2023-04-24T05:10:21;8.40;99.90
12833;DHT22;6483;51.310;4.462;2023-04-24T05:12:49;8.40;99.90
12833;DHT22;6483;51.310;4.462;2023-04-24T05:15:16;8.30;99.90
12833;DHT22;6483;51.310;4.462;2023-04-24T05:17:41;8.40;99.90
12833;DHT22;6483;51.310;4.462;2023-04-24T05:20:09;8.30;99.90
12833;DHT22;6483;51.310;4.462;2023-04-24T05:22:38;8.30;99.90
12833;DHT22;6483;51.310;4.462;2023-04-24T05:25:07;8.20;99.90
12833;DHT22;6483;51.310;4.462;2023-04-24T05:27:33;8.20;99.90
12833;DHT22;6483;51.310;4.462;2023-04-24T05:30:02;8.20;99.90
12833;DHT22;6483;51.310;4.462;2023-04-24T05:32:30;8.20;99.90
12833;DHT22;6483;51.310;4.462;2023-04-24T05:34:55;8.20;99.90
12833;DHT22;6483;51.310;4.462;2023-04-24T05:37:24;8.20;99.90
12833;DHT22;6483;51.310;4.462;2023-04-24T05:39:50;8.20;99.90
12833;DHT22;6483;51.310;4.462;2023-04-24T05:42:18;8.10;99.90
12833;DHT22;6483;51.310;4.462;2023-04-24T05:44:43;8.10;99.90
12833;DHT22;6483;51.310;4.462;2023-04-24T05:47:09;8.10;99.90
12833;DHT22;6483;51.310;4.462;2023-04-24T05:49:38;8.00;99.90
12833;DHT22;6483;51.310;4.462;2023-04-24T05:52:03;8.00;99.90
12833;DHT22;6483;51.310;4.462;2023-04-24T05:54:34;8.00;99.90
12833;DHT22;6483;51.310;4.462;2023-04-24T05:57:00;8.00;99.90
12833;DHT22;6483;51.310;4.462;2023-04-24T05:59:29;8.10;99.90
12833;DHT22;6483;51.310;4.462;2023-04-24T06:01:55;8.10;99.90
12833;DHT22;6483;51.310;4.462;2023-04-24T06:04:21;8.10;99.90
12833;DHT22;6483;51.310;4.462;2023-04-24T06:06:48;8.10;99.90
12833;DHT22;6483;51.310;4.462;2023-04-24T06:09:34;8.10;99.90
12833;DHT22;6483;51.310;4.462;2023-04-24T06:12:03;8.20;99.90
12833;DHT22;6483;51.310;4.462;2023-04-24T06:14:29;8.20;99.90
12833;DHT22;6483;51.310;4.462;2023-04-24T06:16:55;8.30;99.90
12833;DHT22;6483;51.310;4.462;2023-04-24T06:19:20;8.30;99.90
12833;DHT22;6483;51.310;4.462;2023-04-24T06:21:46;8.30;99.90
12833;DHT22;6483;51.310;4.462;2023-04-24T06:24:14;8.30;99.90
12833;DHT22;6483;51.310;4.462;2023-04-24T06:26:42;8.40;99.90
12833;DHT22;6483;51.310;4.462;2023-04-24T06:29:11;8.40;99.90
12833;DHT22;6483;51.310;4.462;2023-04-24T06:31:36;8.40;99.90
12833;DHT22;6483;51.310;4.462;2023-04-24T06:34:05;8.40;99.90
12833;DHT22;6483;51.310;4.462;2023-04-24T06:36:34;8.30;99.90
12833;DHT22;6483;51.310;4.462;2023-04-24T06:39:01;8.30;99.90
12833;DHT22;6483;51.310;4.462;2023-04-24T06:41:28;8.40;99.90
12833;DHT22;6483;51.310;4.462;2023-04-24T06:43:54;8.40;99.90
12833;DHT22;6483;51.310;4.462;2023-04-24T06:46:20;8.50;99.90
12833;DHT22;6483;51.310;4.462;2023-04-24T06:48:49;8.60;99.90
12833;DHT22;6483;51.310;4.462;2023-04-24T06:51:16;8.60;99.90
12833;DHT22;6483;51.310;4.462;2023-04-24T06:53:43;8.60;99.90
12833;DHT22;6483;51.310;4.462;2023-04-24T06:56:09;8.70;99.90
12833;DHT22;6483;51.310;4.462;2023-04-24T06:58:35;8.80;99.90
12833;DHT22;6483;51.310;4.462;2023-04-24T07:01:01;8.80;99.90
12833;DHT22;6483;51.310;4.462;2023-04-24T07:03:26;8.80;99.90
12833;DHT22;6483;51.310;4.462;2023-04-24T07:05:52;8.70;99.90
12833;DHT22;6483;51.310;4.462;2023-04-24T07:08:19;8.70;99.90
12833;DHT22;6483;51.310;4.462;2023-04-24T07:10:48;8.70;99.90
12833;DHT22;6483;51.310;4.462;2023-04-24T07:13:14;8.70;99.90
12833;DHT22;6483;51.310;4.462;2023-04-24T07:15:40;8.70;99.90
12833;DHT22;6483;51.310;4.462;2023-04-24T07:18:09;8.60;99.90
12833;DHT22;6483;51.310;4.462;2023-04-24T07:20:35;8.50;99.90
12833;DHT22;6483;51.310;4.462;2023-04-24T07:23:02;8.50;99.90
12833;DHT22;6483;51.310;4.462;2023-04-24T07:25:27;8.50;99.90
12833;DHT22;6483;51.310;4.462;2023-04-24T07:27:53;8.50;99.90
12833;DHT22;6483;51.310;4.462;2023-04-24T07:30:18;8.60;99.90
12833;DHT22;6483;51.310;4.462;2023-04-24T07:32:45;8.70;99.90
12833;DHT22;6483;51.310;4.462;2023-04-24T07:35:10;8.70;99.90
12833;DHT22;6483;51.310;4.462;2023-04-24T07:37:36;8.80;99.90
12833;DHT22;6483;51.310;4.462;2023-04-24T07:40:02;8.90;99.90
12833;DHT22;6483;51.310;4.462;2023-04-24T07:42:32;8.90;99.90
12833;DHT22;6483;51.310;4.462;2023-04-24T07:44:59;9.10;99.90
12833;DHT22;6483;51.310;4.462;2023-04-24T07:47:25;9.30;99.90
12833;DHT22;6483;51.310;4.462;2023-04-24T07:49:54;9.30;99.90
12833;DHT22;6483;51.310;4.462;2023-04-24T07:52:20;9.30;99.90
12833;DHT22;6483;51.310;4.462;2023-04-24T07:54:45;9.40;99.90
12833;DHT22;6483;51.310;4.462;2023-04-24T07:57:14;9.50;99.90
12833;DHT22;6483;51.310;4.462;2023-04-24T07:59:40;9.40;99.90
12833;DHT22;6483;51.310;4.462;2023-04-24T08:02:09;9.40;99.90
12833;DHT22;6483;51.310;4.462;2023-04-24T08:04:35;9.40;99.90
12833;DHT22;6483;51.310;4.462;2023-04-24T08:07:04;9.40;99.90
12833;DHT22;6483;51.310;4.462;2023-04-24T08:09:34;9.30;99.90
12833;DHT22;6483;51.310;4.462;2023-04-24T08:11:59;9.10;99.90
12833;DHT22;6483;51.310;4.462;2023-04-24T08:14:26;8.90;99.90
12833;DHT22;6483;51.310;4.462;2023-04-24T08:16:54;8.90;99.90
12833;DHT22;6483;51.310;4.462;2023-04-24T08:19:21;8.90;99.90
12833;DHT22;6483;51.310;4.462;2023-04-24T08:21:47;9.00;99.90
12833;DHT22;6483;51.310;4.462;2023-04-24T08:24:15;9.30;99.90
12833;DHT22;6483;51.310;4.462;2023-04-24T08:26:41;9.50;99.90
12833;DHT22;6483;51.310;4.462;2023-04-24T08:29:08;9.60;99.90
12833;DHT22;6483;51.310;4.462;2023-04-24T08:31:36;9.70;99.90
12833;DHT22;6483;51.310;4.462;2023-04-24T08:34:04;9.80;99.90
12833;DHT22;6483;51.310;4.462;2023-04-24T08:36:30;9.70;99.90
12833;DHT22;6483;51.310;4.462;2023-04-24T08:38:57;9.80;99.90
12833;DHT22;6483;51.310;4.462;2023-04-24T08:41:23;9.90;99.90
12833;DHT22;6483;51.310;4.462;2023-04-24T08:43:51;10.10;99.90
12833;DHT22;6483;51.310;4.462;2023-04-24T08:46:18;10.10;99.90
12833;DHT22;6483;51.310;4.462;2023-04-24T08:48:45;10.20;99.90
12833;DHT22;6483;51.310;4.462;2023-04-24T08:51:11;10.20;99.90
12833;DHT22;6483;51.310;4.462;2023-04-24T08:53:41;10.50;99.90
12833;DHT22;6483;51.310;4.462;2023-04-24T08:56:07;10.80;99.90
12833;DHT22;6483;51.310;4.462;2023-04-24T08:58:33;10.90;99.90
12833;DHT22;6483;51.310;4.462;2023-04-24T09:01:01;11.20;99.90
12833;DHT22;6483;51.310;4.462;2023-04-24T09:03:28;11.60;99.90
12833;DHT22;6483;51.310;4.462;2023-04-24T09:05:55;12.60;99.90
12833;DHT22;6483;51.310;4.462;2023-04-24T09:08:24;12.50;99.90
12833;DHT22;6483;51.310;4.462;2023-04-24T09:10:50;11.80;99.90
12833;DHT22;6483;51.310;4.462;2023-04-24T09:13:17;11.30;99.90
12833;DHT22;6483;51.310;4.462;2023-04-24T09:15:47;11.10;99.90
12833;DHT22;6483;51.310;4.462;2023-04-24T09:18:13;10.70;99.90
12833;DHT22;6483;51.310;4.462;2023-04-24T09:21:01;10.40;99.90
12833;DHT22;6483;51.310;4.462;2023-04-24T09:23:29;10.20;99.90
12833;DHT22;6483;51.310;4.462;2023-04-24T09:25:59;10.30;99.90
12833;DHT22;6483;51.310;4.462;2023-04-24T09:28:39;10.30;99.90
12833;DHT22;6483;51.310;4.462;2023-04-24T09:31:13;10.40;99.90
12833;DHT22;6483;51.310;4.462;2023-04-24T09:34:40;10.50;99.90
12833;DHT22;6483;51.310;4.462;2023-04-24T09:36:39;10.50;99.90
12833;DHT22;6483;51.310;4.462;2023-04-24T09:39:25;10.50;99.90
12833;DHT22;6483;51.310;4.462;2023-04-24T09:41:53;11.00;99.90
12833;DHT22;6483;51.310;4.462;2023-04-24T09:44:21;11.60;99.90
12833;DHT22;6483;51.310;4.462;2023-04-24T09:46:57;12.20;99.90
12833;DHT22;6483;51.310;4.462;2023-04-24T09:49:30;12.20;99.90
12833;DHT22;6483;51.310;4.462;2023-04-24T09:52:06;11.80;99.90
12833;DHT22;6483;51.310;4.462;2023-04-24T09:55:15;11.10;99.90
12833;DHT22;6483;51.310;4.462;2023-04-24T09:57:25;11.00;99.90
12833;DHT22;6483;51.310;4.462;2023-04-24T09:59:53;10.60;99.90
12833;DHT22;6483;51.310;4.462;2023-04-24T10:02:19;10.40;99.90
12833;DHT22;6483;51.310;4.462;2023-04-24T10:05:04;10.30;99.90
12833;DHT22;6483;51.310;4.462;2023-04-24T10:07:32;10.20;99.90
12833;DHT22;6483;51.310;4.462;2023-04-24T10:09:58;10.10;99.90
12833;DHT22;6483;51.310;4.462;2023-04-24T10:12:28;8.40;99.90
12833;DHT22;6483;51.310;4.462;2023-04-24T10:14:55;10.20;99.90
12833;DHT22;6483;51.310;4.462;2023-04-24T10:17:23;10.50;99.90
12833;DHT22;6483;51.310;4.462;2023-04-24T10:19:51;10.60;99.90
12833;DHT22;6483;51.310;4.462;2023-04-24T10:22:17;10.70;99.90
12833;DHT22;6483;51.310;4.462;2023-04-24T10:24:46;10.50;99.90
12833;DHT22;6483;51.310;4.462;2023-04-24T10:27:13;10.70;99.90
12833;DHT22;6483;51.310;4.462;2023-04-24T10:29:41;11.00;99.90
12833;DHT22;6483;51.310;4.462;2023-04-24T10:32:12;11.60;99.90
12833;DHT22;6483;51.310;4.462;2023-04-24T10:34:38;11.80;99.90
12833;DHT22;6483;51.310;4.462;2023-04-24T10:37:07;12.00;99.90
12833;DHT22;6483;51.310;4.462;2023-04-24T10:39:33;12.70;50.20
12833;DHT22;6483;51.310;4.462;2023-04-24T10:41:59;12.80;25.80
12833;DHT22;6483;51.310;4.462;2023-04-24T10:44:25;13.00;43.80
12833;DHT22;6483;51.310;4.462;2023-04-24T10:46:56;12.70;30.00
12833;DHT22;6483;51.310;4.462;2023-04-24T10:49:28;12.10;19.40
12833;DHT22;6483;51.310;4.462;2023-04-24T10:52:00;11.60;39.70
12833;DHT22;6483;51.310;4.462;2023-04-24T10:54:34;11.20;72.00
12833;DHT22;6483;51.310;4.462;2023-04-24T10:57:38;11.30;91.00
12833;DHT22;6483;51.310;4.462;2023-04-24T11:00:16;11.20;85.90
12833;DHT22;6483;51.310;4.462;2023-04-24T11:03:09;11.00;90.70
12833;DHT22;6483;51.310;4.462;2023-04-24T11:06:05;10.70;69.10
12833;DHT22;6483;51.310;4.462;2023-04-24T11:08:39;10.60;68.40
12833;DHT22;6483;51.310;4.462;2023-04-24T11:18:59;11.10;85.10
12833;DHT22;6483;51.310;4.462;2023-04-24T11:21:25;11.10;78.00
12833;DHT22;6483;51.310;4.462;2023-04-24T11:27:22;10.90;93.40
12833;DHT22;6483;51.310;4.462;2023-04-24T11:29:59;11.00;84.70
12833;DHT22;6483;51.310;4.462;2023-04-24T11:32:40;10.90;71.40
12833;DHT22;6483;51.310;4.462;2023-04-24T11:35:18;10.80;43.50
12833;DHT22;6483;51.310;4.462;2023-04-24T11:37:50;10.80;46.10
12833;DHT22;6483;51.310;4.462;2023-04-24T11:40:17;10.90;56.30
12833;DHT22;6483;51.310;4.462;2023-04-24T11:42:44;10.90;49.20
12833;DHT22;6483;51.310;4.462;2023-04-24T11:47:57;10.80;50.70
12833;DHT22;6483;51.310;4.462;2023-04-24T11:50:25;10.90;72.50
12833;DHT22;6483;51.310;4.462;2023-04-24T11:52:53;11.10;71.20
12833;DHT22;6483;51.310;4.462;2023-04-24T11:57:49;11.50;50.60
12833;DHT22;6483;51.310;4.462;2023-04-24T12:00:20;11.50;55.80
12833;DHT22;6483;51.310;4.462;2023-04-24T12:02:47;11.60;43.80
12833;DHT22;6483;51.310;4.462;2023-04-24T12:05:26;11.50;74.50
12833;DHT22;6483;51.310;4.462;2023-04-24T12:07:55;11.80;50.20
12833;DHT22;6483;51.310;4.462;2023-04-24T12:10:26;12.10;40.30
12833;DHT22;6483;51.310;4.462;2023-04-24T12:12:52;12.10;38.20
12833;DHT22;6483;51.310;4.462;2023-04-24T12:15:20;12.20;38.90
12833;DHT22;6483;51.310;4.462;2023-04-24T12:17:51;12.20;41.50
12833;DHT22;6483;51.310;4.462;2023-04-24T12:20:17;12.10;43.70
12833;DHT22;6483;51.310;4.462;2023-04-24T12:22:53;12.40;27.70
12833;DHT22;6483;51.310;4.462;2023-04-24T12:25:39;12.30;29.60
12833;DHT22;6483;51.310;4.462;2023-04-24T12:30:43;12.60;22.40
12833;DHT22;6483;51.310;4.462;2023-04-24T12:33:10;12.30;22.60
12833;DHT22;6483;51.310;4.462;2023-04-24T12:35:36;12.50;24.10
12833;DHT22;6483;51.310;4.462;2023-04-24T12:38:09;13.70;1.00
12833;DHT22;6483;51.310;4.462;2023-04-24T12:40:35;14.70;1.00
12833;DHT22;6483;51.310;4.462;2023-04-24T12:43:19;15.80;1.00
12833;DHT22;6483;51.310;4.462;2023-04-24T12:45:47;16.10;1.00
12833;DHT22;6483;51.310;4.462;2023-04-24T12:48:13;14.90;1.00
12833;DHT22;6483;51.310;4.462;2023-04-24T12:50:43;13.70;1.00
12833;DHT22;6483;51.310;4.462;2023-04-24T12:53:09;13.30;1.00
12833;DHT22;6483;51.310;4.462;2023-04-24T12:55:35;13.00;1.00
12833;DHT22;6483;51.310;4.462;2023-04-24T12:58:01;13.40;1.00
12833;DHT22;6483;51.310;4.462;2023-04-24T13:00:31;13.20;1.00
12833;DHT22;6483;51.310;4.462;2023-04-24T13:03:01;13.00;1.00
12833;DHT22;6483;51.310;4.462;2023-04-24T13:05:28;13.50;1.00
12833;DHT22;6483;51.310;4.462;2023-04-24T13:07:54;13.80;1.00
12833;DHT22;6483;51.310;4.462;2023-04-24T13:10:20;13.90;1.00
12833;DHT22;6483;51.310;4.462;2023-04-24T13:12:46;13.60;1.00
12833;DHT22;6483;51.310;4.462;2023-04-24T13:15:12;13.30;1.00
12833;DHT22;6483;51.310;4.462;2023-04-24T13:17:41;13.10;1.00
12833;DHT22;6483;51.310;4.462;2023-04-24T13:20:14;13.20;1.00
12833;DHT22;6483;51.310;4.462;2023-04-24T13:22:39;12.90;1.00
12833;DHT22;6483;51.310;4.462;2023-04-24T13:25:07;13.00;1.00
12833;DHT22;6483;51.310;4.462;2023-04-24T13:27:34;13.20;1.00
12833;DHT22;6483;51.310;4.462;2023-04-24T13:29:59;13.50;1.00
12833;DHT22;6483;51.310;4.462;2023-04-24T13:32:25;14.30;1.00
12833;DHT22;6483;51.310;4.462;2023-04-24T13:34:51;14.50;1.00
12833;DHT22;6483;51.310;4.462;2023-04-24T13:37:17;14.30;1.00
12833;DHT22;6483;51.310;4.462;2023-04-24T13:39:43;14.20;1.00
12833;DHT22;6483;51.310;4.462;2023-04-24T13:42:11;14.30;1.00
12833;DHT22;6483;51.310;4.462;2023-04-24T13:44:40;13.90;1.00
12833;DHT22;6483;51.310;4.462;2023-04-24T13:47:05;13.70;1.00
12833;DHT22;6483;51.310;4.462;2023-04-24T13:49:32;13.60;1.00
12833;DHT22;6483;51.310;4.462;2023-04-24T13:51:58;14.10;1.00
12833;DHT22;6483;51.310;4.462;2023-04-24T13:54:26;16.80;1.00
12833;DHT22;6483;51.310;4.462;2023-04-24T13:56:55;17.20;1.00
12833;DHT22;6483;51.310;4.462;2023-04-24T13:59:24;17.10;1.00
12833;DHT22;6483;51.310;4.462;2023-04-24T14:01:50;15.90;1.00
12833;DHT22;6483;51.310;4.462;2023-04-24T14:04:16;16.10;1.00
12833;DHT22;6483;51.310;4.462;2023-04-24T14:06:43;17.70;1.00
12833;DHT22;6483;51.310;4.462;2023-04-24T14:09:09;18.50;1.00
12833;DHT22;6483;51.310;4.462;2023-04-24T14:11:37;18.20;1.00
12833;DHT22;6483;51.310;4.462;2023-04-24T14:14:03;17.60;1.00
12833;DHT22;6483;51.310;4.462;2023-04-24T14:16:30;17.20;1.00
12833;DHT22;6483;51.310;4.462;2023-04-24T14:18:56;16.20;1.00
12833;DHT22;6483;51.310;4.462;2023-04-24T14:21:22;15.50;1.00
12833;DHT22;6483;51.310;4.462;2023-04-24T14:23:48;16.00;1.00
12833;DHT22;6483;51.310;4.462;2023-04-24T14:26:14;15.70;1.00
12833;DHT22;6483;51.310;4.462;2023-04-24T14:28:40;16.50;1.00
12833;DHT22;6483;51.310;4.462;2023-04-24T14:31:06;17.60;1.00
12833;DHT22;6483;51.310;4.462;2023-04-24T14:33:32;18.10;1.00
12833;DHT22;6483;51.310;4.462;2023-04-24T14:35:58;19.50;1.00
12833;DHT22;6483;51.310;4.462;2023-04-24T14:38:24;20.10;1.00
12833;DHT22;6483;51.310;4.462;2023-04-24T14:40:50;21.00;1.00
12833;DHT22;6483;51.310;4.462;2023-04-24T14:43:16;20.60;1.00
12833;DHT22;6483;51.310;4.462;2023-04-24T14:45:44;20.20;1.00
12833;DHT22;6483;51.310;4.462;2023-04-24T14:48:12;20.00;1.00
12833;DHT22;6483;51.310;4.462;2023-04-24T14:50:38;20.30;1.00
12833;DHT22;6483;51.310;4.462;2023-04-24T14:53:06;19.40;1.00
12833;DHT22;6483;51.310;4.462;2023-04-24T14:55:34;16.40;1.00
12833;DHT22;6483;51.310;4.462;2023-04-24T14:58:01;15.10;1.00
12833;DHT22;6483;51.310;4.462;2023-04-24T15:00:27;14.00;9.30
12833;DHT22;6483;51.310;4.462;2023-04-24T15:02:55;13.70;18.80
12833;DHT22;6483;51.310;4.462;2023-04-24T15:05:21;13.20;14.50
12833;DHT22;6483;51.310;4.462;2023-04-24T15:07:50;13.70;27.60
12833;DHT22;6483;51.310;4.462;2023-04-24T15:10:16;14.60;1.00
12833;DHT22;6483;51.310;4.462;2023-04-24T15:12:43;15.30;1.00
12833;DHT22;6483;51.310;4.462;2023-04-24T15:15:10;15.30;1.00
12833;DHT22;6483;51.310;4.462;2023-04-24T15:17:39;15.70;1.00
12833;DHT22;6483;51.310;4.462;2023-04-24T15:20:07;16.80;1.00
12833;DHT22;6483;51.310;4.462;2023-04-24T15:22:33;16.70;1.00
12833;DHT22;6483;51.310;4.462;2023-04-24T15:24:58;16.10;1.00
12833;DHT22;6483;51.310;4.462;2023-04-24T15:27:24;16.30;1.00
12833;DHT22;6483;51.310;4.462;2023-04-24T15:29:51;16.10;1.00
12833;DHT22;6483;51.310;4.462;2023-04-24T15:32:21;15.20;1.00
12833;DHT22;6483;51.310;4.462;2023-04-24T15:34:47;14.20;1.00
12833;DHT22;6483;51.310;4.462;2023-04-24T15:37:13;13.70;1.00
12833;DHT22;6483;51.310;4.462;2023-04-24T15:39:38;13.20;1.30
12833;DHT22;6483;51.310;4.462;2023-04-24T15:42:04;12.60;21.90
12833;DHT22;6483;51.310;4.462;2023-04-24T15:44:33;12.30;38.00
12833;DHT22;6483;51.310;4.462;2023-04-24T15:47:00;12.30;54.40
12833;DHT22;6483;51.310;4.462;2023-04-24T15:49:26;12.00;72.90
12833;DHT22;6483;51.310;4.462;2023-04-24T15:51:52;11.60;64.20
12833;DHT22;6483;51.310;4.462;2023-04-24T15:54:17;11.60;78.40
12833;DHT22;6483;51.310;4.462;2023-04-24T15:56:43;11.90;68.40
12833;DHT22;6483;51.310;4.462;2023-04-24T15:59:10;12.90;28.30
12833;DHT22;6483;51.310;4.462;2023-04-24T16:01:42;14.30;1.00
12833;DHT22;6483;51.310;4.462;2023-04-24T16:04:07;15.60;1.00
12833;DHT22;6483;51.310;4.462;2023-04-24T16:06:33;16.10;1.00
12833;DHT22;6483;51.310;4.462;2023-04-24T16:09:05;15.10;1.00
12833;DHT22;6483;51.310;4.462;2023-04-24T16:11:33;14.50;1.00
12833;DHT22;6483;51.310;4.462;2023-04-24T16:14:01;14.10;1.00
12833;DHT22;6483;51.310;4.462;2023-04-24T16:16:26;13.70;1.00
12833;DHT22;6483;51.310;4.462;2023-04-24T16:18:52;13.40;1.00
12833;DHT22;6483;51.310;4.462;2023-04-24T16:21:19;13.50;1.00